createdAt,value
2024-01-22T00:00:58.778Z,-3.24
2024-01-22T00:04:00.469Z,-3.25
2024-01-22T00:07:02.185Z,-3.17
2024-01-22T00:10:05.654Z,-3.13
2024-01-22T00:13:07.561Z,-3.11
2024-01-22T00:16:09.227Z,-3.11
2024-01-22T00:19:11.079Z,-3.11
2024-01-22T00:22:12.953Z,-3.10
2024-01-22T00:25:15.827Z,-3.11
2024-01-22T00:28:18.081Z,-3.08
2024-01-22T00:31:19.762Z,-3.13
2024-01-22T00:34:21.469Z,-3.19
2024-01-22T00:37:23.173Z,-3.34
2024-01-22T00:40:24.930Z,-3.36
2024-01-22T00:43:26.747Z,-3.37
2024-01-22T00:46:28.516Z,-3.35
2024-01-22T00:49:31.447Z,-3.42
2024-01-22T00:52:33.222Z,-3.40
2024-01-22T00:55:35.396Z,-3.40
2024-01-22T00:58:37.698Z,-3.37
2024-01-22T01:01:39.476Z,-3.33
2024-01-22T01:04:41.843Z,-3.26
2024-01-22T01:07:43.534Z,-3.32
2024-01-22T01:10:45.231Z,-3.27
2024-01-22T01:13:47.284Z,-3.27
2024-01-22T01:16:49.075Z,-3.24
2024-01-22T01:19:51.130Z,-3.15
2024-01-22T01:22:52.815Z,-3.16
2024-01-22T01:25:54.482Z,-2.96
2024-01-22T01:28:56.276Z,-2.95
2024-01-22T01:31:57.952Z,-2.90
2024-01-22T01:34:59.727Z,-2.92
2024-01-22T01:38:01.507Z,-2.99
2024-01-22T01:41:03.348Z,-3.15
2024-01-22T01:44:05.202Z,-3.23
2024-01-22T01:47:06.975Z,-3.43
2024-01-22T01:50:09.244Z,-3.44
2024-01-22T01:53:11.547Z,-3.45
2024-01-22T01:56:13.643Z,-3.48
2024-01-22T01:59:15.329Z,-3.55
2024-01-22T02:02:18.067Z,-3.53
2024-01-22T02:05:20.629Z,-3.45
2024-01-22T02:08:22.389Z,-3.44
2024-01-22T02:11:24.375Z,-3.35
2024-01-22T02:14:26.046Z,-3.34
2024-01-22T02:17:27.846Z,-3.29
2024-01-22T02:20:30.759Z,-3.21
2024-01-22T02:23:32.499Z,-3.18
2024-01-22T02:26:36.619Z,-3.13
2024-01-22T02:29:39.142Z,-3.21
2024-01-22T02:32:41.217Z,-3.20
2024-01-22T02:35:43.092Z,-3.22
2024-01-22T02:38:44.893Z,-3.28
2024-01-22T02:41:46.575Z,-3.28
2024-01-22T02:44:48.704Z,-3.21
2024-01-22T02:47:50.537Z,-3.23
2024-01-22T02:50:52.341Z,-3.22
2024-01-22T02:53:54.670Z,-3.22
2024-01-22T02:56:56.435Z,-3.26
2024-01-22T02:59:58.278Z,-3.26
2024-01-22T03:03:00.112Z,-3.28
2024-01-22T03:06:02.316Z,-3.29
2024-01-22T03:09:04.286Z,-3.18
2024-01-22T03:12:06.842Z,-3.16
2024-01-22T03:15:09.110Z,-3.07
2024-01-22T03:18:11.093Z,-3.07
2024-01-22T03:21:13.028Z,-3.02
2024-01-22T03:24:14.974Z,-2.98
2024-01-22T03:27:17.764Z,-2.97
2024-01-22T03:30:19.521Z,-2.93
2024-01-22T03:33:21.412Z,-2.99
2024-01-22T03:36:24.431Z,-3.08
2024-01-22T03:39:26.282Z,-3.06
2024-01-22T03:42:28.106Z,-2.96
2024-01-22T03:45:29.776Z,-2.89
2024-01-22T03:48:31.541Z,-2.75
2024-01-22T03:51:33.318Z,-2.69
2024-01-22T03:54:35.002Z,-2.69
2024-01-22T03:57:36.751Z,-2.64
2024-01-22T04:00:39.188Z,-2.63
2024-01-22T04:03:40.992Z,-2.49
2024-01-22T04:06:42.804Z,-2.32
2024-01-22T04:09:44.563Z,-2.14
2024-01-22T04:12:46.315Z,-1.99
2024-01-22T04:15:51.894Z,-1.86
2024-01-22T04:18:53.726Z,-1.77
2024-01-22T04:21:55.706Z,-1.61
2024-01-22T04:24:57.847Z,-1.51
2024-01-22T04:27:59.585Z,-1.47
2024-01-22T04:31:01.886Z,-1.60
2024-01-22T04:34:03.778Z,-1.63
2024-01-22T04:37:05.899Z,-1.72
2024-01-22T04:40:11.660Z,-1.86
2024-01-22T04:43:13.343Z,-1.94
2024-01-22T04:46:15.034Z,-1.97
2024-01-22T04:49:16.723Z,-2.09
2024-01-22T04:52:18.428Z,-2.11
2024-01-22T04:55:22.269Z,-2.16
2024-01-22T04:58:25.173Z,-2.15
2024-01-22T05:01:26.816Z,-2.23
2024-01-22T05:04:28.618Z,-2.27
2024-01-22T05:07:30.319Z,-2.31
2024-01-22T05:10:31.989Z,-2.35
2024-01-22T05:13:33.646Z,-2.40
2024-01-22T05:16:35.360Z,-2.49
2024-01-22T05:19:37.134Z,-2.61
2024-01-22T05:22:38.881Z,-2.78
2024-01-22T05:25:40.525Z,-2.77
2024-01-22T05:28:42.253Z,-2.80
2024-01-22T05:31:43.973Z,-2.67
2024-01-22T05:34:45.665Z,-2.40
2024-01-22T05:37:50.222Z,-2.45
2024-01-22T05:40:51.973Z,-2.55
2024-01-22T05:43:53.643Z,-2.55
2024-01-22T05:46:55.413Z,-2.45
2024-01-22T05:49:57.181Z,-2.33
2024-01-22T05:52:58.939Z,-2.25
2024-01-22T05:56:00.592Z,-2.15
2024-01-22T05:59:02.389Z,-2.06
2024-01-22T06:02:04.111Z,-1.97
2024-01-22T06:05:06.193Z,-1.84
2024-01-22T06:08:07.903Z,-1.83
2024-01-22T06:11:09.956Z,-1.71
2024-01-22T06:14:11.723Z,-1.60
2024-01-22T06:17:13.364Z,-1.69
2024-01-22T06:20:15.161Z,-1.69
2024-01-22T06:23:16.944Z,-1.66
2024-01-22T06:26:19.232Z,-1.57
2024-01-22T06:29:21.070Z,-1.53
2024-01-22T06:32:22.754Z,-1.59
2024-01-22T06:35:24.482Z,-1.56
2024-01-22T06:38:26.703Z,-1.55
2024-01-22T06:41:28.488Z,-1.49
2024-01-22T06:44:30.175Z,-1.53
2024-01-22T06:47:31.946Z,-1.46
2024-01-22T06:50:33.757Z,-1.44
2024-01-22T06:53:35.759Z,-1.47
2024-01-22T06:56:37.489Z,-1.47
2024-01-22T06:59:39.226Z,-1.48
2024-01-22T07:02:42.501Z,-1.47
2024-01-22T07:05:46.173Z,-1.40
2024-01-22T07:08:47.952Z,-1.29
2024-01-22T07:11:50.869Z,-1.12
2024-01-22T07:14:52.827Z,-0.99
2024-01-22T07:17:54.914Z,-0.81
2024-01-22T07:20:56.751Z,-0.71
2024-01-22T07:23:58.535Z,-0.53
2024-01-22T07:27:00.279Z,-0.44
2024-01-22T07:30:02.054Z,-0.35
2024-01-22T07:33:04.567Z,-0.33
2024-01-22T07:36:06.808Z,-0.23
2024-01-22T07:39:09.088Z,-0.25
2024-01-22T07:42:11.023Z,-0.18
2024-01-22T07:45:13.372Z,-0.08
2024-01-22T07:48:15.981Z,-0.04
2024-01-22T07:51:17.784Z,0.02
2024-01-22T07:54:19.621Z,0.07
2024-01-22T07:57:21.713Z,0.22
2024-01-22T08:00:23.884Z,0.31
2024-01-22T08:03:25.849Z,0.42
2024-01-22T08:06:28.125Z,0.57
2024-01-22T08:09:33.490Z,0.77
2024-01-22T08:12:35.160Z,0.95
2024-01-22T08:15:36.819Z,1.14
2024-01-22T08:18:38.615Z,1.32
2024-01-22T08:21:40.615Z,1.54
2024-01-22T08:24:42.348Z,1.83
2024-01-22T08:27:46.022Z,1.94
2024-01-22T08:30:47.706Z,1.99
2024-01-22T08:33:50.645Z,2.11
2024-01-22T08:36:52.416Z,2.20
2024-01-22T08:39:54.635Z,2.44
2024-01-22T08:42:56.713Z,2.60
2024-01-22T08:45:58.551Z,2.79
2024-01-22T08:49:00.322Z,2.97
2024-01-22T08:52:02.209Z,3.15
2024-01-22T08:55:06.626Z,3.46
2024-01-22T08:58:08.392Z,3.69
2024-01-22T09:01:10.159Z,3.82
2024-01-22T09:04:11.990Z,3.95
2024-01-22T09:07:13.762Z,4.11
2024-01-22T09:10:16.496Z,4.31
2024-01-22T09:13:18.213Z,4.36
2024-01-22T09:16:22.184Z,4.54
2024-01-22T09:19:24.250Z,4.58
2024-01-22T09:22:27.088Z,4.64
2024-01-22T09:25:28.858Z,4.89
2024-01-22T09:28:31.963Z,4.95
2024-01-22T09:31:35.650Z,5.07
2024-01-22T09:34:38.212Z,5.23
2024-01-22T09:37:39.931Z,5.26
2024-01-22T09:40:41.787Z,5.49
2024-01-22T09:43:44.006Z,5.54
2024-01-22T09:46:47.485Z,5.65
2024-01-22T09:49:49.462Z,5.66
2024-01-22T09:52:53.111Z,5.61
2024-01-22T09:55:56.022Z,5.70
2024-01-22T09:59:05.297Z,5.81
2024-01-22T10:02:07.926Z,5.93
2024-01-22T10:05:10.246Z,5.88
2024-01-22T10:08:12.047Z,5.88
2024-01-22T10:11:14.728Z,5.82
2024-01-22T10:14:16.469Z,5.87
2024-01-22T10:17:19.584Z,5.92
2024-01-22T10:20:24.833Z,5.93
2024-01-22T10:23:26.517Z,5.94
2024-01-22T10:26:29.251Z,6.01
2024-01-22T10:29:30.950Z,6.08
2024-01-22T10:32:32.656Z,6.17
2024-01-22T10:35:34.625Z,6.08
2024-01-22T10:38:36.352Z,6.18
2024-01-22T10:41:41.404Z,6.32
2024-01-22T10:44:45.176Z,6.34
2024-01-22T10:47:49.418Z,6.42
2024-01-22T10:50:53.023Z,6.60
2024-01-22T10:53:55.522Z,6.74
2024-01-22T10:57:06.623Z,6.83
2024-01-22T11:00:10.984Z,6.86
2024-01-22T11:03:17.433Z,6.91
2024-01-22T11:06:28.537Z,6.93
2024-01-22T11:09:33.510Z,6.91
2024-01-22T11:12:42.493Z,7.01
2024-01-22T11:15:45.571Z,7.03
2024-01-22T11:19:01.124Z,7.13
2024-01-22T11:22:20.947Z,7.26
2024-01-22T11:25:22.751Z,7.36
2024-01-22T11:28:25.539Z,7.60
2024-01-22T11:31:27.515Z,7.66
2024-01-22T11:34:39.806Z,7.85
2024-01-22T11:37:44.269Z,8.00
2024-01-22T11:40:53.990Z,8.23
2024-01-22T11:43:56.051Z,8.52
2024-01-22T11:47:05.478Z,8.68
2024-01-22T11:50:08.756Z,8.86
2024-01-22T11:53:11.366Z,9.02
2024-01-22T11:56:13.953Z,9.04
2024-01-22T11:59:16.354Z,9.04
2024-01-22T12:02:18.082Z,9.17
2024-01-22T12:05:20.932Z,9.21
2024-01-22T12:08:23.157Z,9.18
2024-01-22T12:11:25.113Z,9.24
2024-01-22T12:14:26.911Z,9.27
2024-01-22T12:17:29.034Z,9.29
2024-01-22T12:20:31.678Z,9.30
2024-01-22T12:23:35.435Z,9.37
2024-01-22T12:26:41.312Z,9.29
2024-01-22T12:29:43.295Z,9.26
2024-01-22T12:32:55.159Z,9.36
2024-01-22T12:36:08.210Z,9.35
2024-01-22T12:39:20.749Z,9.46
2024-01-22T12:42:24.308Z,9.49
2024-01-22T12:45:26.470Z,9.51
2024-01-22T12:48:28.795Z,9.51
2024-01-22T12:51:30.697Z,9.45
2024-01-22T12:54:32.487Z,9.45
2024-01-22T12:57:35.079Z,9.40
2024-01-22T13:00:36.799Z,9.46
2024-01-22T13:03:39.597Z,9.40
2024-01-22T13:06:43.491Z,9.40
2024-01-22T13:09:45.352Z,9.33
2024-01-22T13:12:47.179Z,9.26
2024-01-22T13:15:58.248Z,9.25
2024-01-22T13:19:11.089Z,9.18
2024-01-22T13:22:13.643Z,9.28
2024-01-22T13:25:19.802Z,9.25
2024-01-22T13:28:21.530Z,9.25
2024-01-22T13:31:23.398Z,9.34
2024-01-22T13:34:25.589Z,9.40
2024-01-22T13:37:27.827Z,9.43
2024-01-22T13:40:29.835Z,9.47
2024-01-22T13:43:31.526Z,9.55
2024-01-22T13:46:33.770Z,9.60
2024-01-22T13:49:35.695Z,9.72
2024-01-22T13:52:37.904Z,9.82
2024-01-22T13:55:39.678Z,9.86
2024-01-22T13:58:42.398Z,9.87
2024-01-22T14:01:44.163Z,9.90
2024-01-22T14:04:45.954Z,9.97
2024-01-22T14:07:48.547Z,10.03
2024-01-22T14:10:50.251Z,9.98
2024-01-22T14:13:52.086Z,9.90
2024-01-22T14:16:54.173Z,9.87
2024-01-22T14:19:56.827Z,9.94
2024-01-22T14:22:58.697Z,9.92
2024-01-22T14:26:00.505Z,9.94
2024-01-22T14:29:04.451Z,9.89
2024-01-22T14:32:06.483Z,9.82
2024-01-22T14:35:08.381Z,9.84
2024-01-22T14:38:10.338Z,9.81
2024-01-22T14:41:12.992Z,9.65
2024-01-22T14:44:14.678Z,9.51
2024-01-22T14:47:16.568Z,9.38
2024-01-22T14:50:18.494Z,9.26
2024-01-22T14:53:21.543Z,8.98
2024-01-22T14:56:23.327Z,8.72
2024-01-22T14:59:25.031Z,8.38
2024-01-22T15:02:26.679Z,8.21
2024-01-22T15:05:28.482Z,8.03
2024-01-22T15:08:30.200Z,7.81
2024-01-22T15:11:31.949Z,7.67
2024-01-22T15:14:33.684Z,7.52
2024-01-22T15:17:35.395Z,7.44
2024-01-22T15:20:37.151Z,7.29
2024-01-22T15:23:39.338Z,7.22
2024-01-22T15:26:41.263Z,7.23
2024-01-22T15:29:44.248Z,7.09
2024-01-22T15:32:46.172Z,7.30
2024-01-22T15:35:48.760Z,7.25
2024-01-22T15:38:51.025Z,7.24
2024-01-22T15:41:52.914Z,7.20
2024-01-22T15:44:54.716Z,7.11
2024-01-22T15:47:56.551Z,7.09
2024-01-22T15:51:00.623Z,7.02
2024-01-22T15:54:02.805Z,6.97
2024-01-22T15:57:04.747Z,6.85
2024-01-22T16:00:07.094Z,6.82
2024-01-22T16:03:13.581Z,6.71
2024-01-22T16:06:20.266Z,6.61
2024-01-22T16:09:22.375Z,6.53
2024-01-22T16:12:24.710Z,6.44
2024-01-22T16:15:26.424Z,6.39
2024-01-22T16:18:28.568Z,6.34
2024-01-22T16:21:30.651Z,6.34
2024-01-22T16:24:32.672Z,6.30
2024-01-22T16:27:34.673Z,6.34
2024-01-22T16:30:42.086Z,6.36
2024-01-22T16:33:45.960Z,6.33
2024-01-22T16:36:49.746Z,6.26
2024-01-22T16:39:52.253Z,6.27
2024-01-22T16:42:54.021Z,6.30
2024-01-22T16:45:55.713Z,6.31
2024-01-22T16:48:58.021Z,6.30
2024-01-22T16:52:01.011Z,6.26
2024-01-22T16:55:02.732Z,6.27
2024-01-22T16:58:04.721Z,6.28
2024-01-22T17:01:06.416Z,6.27
2024-01-22T17:04:08.158Z,6.31
2024-01-22T17:07:12.501Z,6.36
2024-01-22T17:10:14.303Z,6.35
2024-01-22T17:13:16.112Z,6.34
2024-01-22T17:16:18.020Z,6.34
2024-01-22T17:19:19.880Z,6.34
2024-01-22T17:22:22.128Z,6.37
2024-01-22T17:25:23.808Z,6.40
2024-01-22T17:28:25.865Z,6.37
2024-01-22T17:31:27.629Z,6.33
2024-01-22T17:34:29.344Z,6.31
2024-01-22T17:37:31.135Z,6.26
2024-01-22T17:40:33.144Z,6.27
2024-01-22T17:43:34.882Z,6.20
2024-01-22T17:46:43.534Z,6.25
2024-01-22T17:49:45.245Z,6.21
2024-01-22T17:52:46.934Z,6.26
2024-01-22T17:55:48.633Z,6.23
2024-01-22T17:58:50.288Z,6.24
2024-01-22T18:01:52.002Z,6.26
2024-01-22T18:04:53.699Z,6.23
2024-01-22T18:07:56.808Z,6.24
2024-01-22T18:10:58.574Z,6.21
2024-01-22T18:14:00.346Z,6.20
2024-01-22T18:17:02.036Z,6.21
2024-01-22T18:20:04.954Z,6.17
2024-01-22T18:23:06.679Z,6.18
2024-01-22T18:26:08.375Z,6.18
2024-01-22T18:29:10.128Z,6.14
2024-01-22T18:32:11.872Z,6.12
2024-01-22T18:35:13.613Z,6.12
2024-01-22T18:38:15.279Z,6.08
2024-01-22T18:41:27.159Z,6.08
2024-01-22T18:44:28.830Z,6.06
2024-01-22T18:47:30.486Z,6.09
2024-01-22T18:50:36.465Z,6.00
2024-01-22T18:53:38.547Z,6.09
2024-01-22T18:56:43.565Z,6.05
2024-01-22T18:59:47.454Z,6.13
2024-01-22T19:02:49.898Z,6.13
2024-01-22T19:05:52.770Z,6.19
2024-01-22T19:08:54.591Z,6.13
2024-01-22T19:11:56.296Z,6.11
2024-01-22T19:14:58.007Z,6.11
2024-01-22T19:17:59.745Z,6.09
2024-01-22T19:21:01.462Z,6.13
2024-01-22T19:24:03.247Z,6.09
2024-01-22T19:27:05.125Z,6.09
2024-01-22T19:30:09.676Z,6.09
2024-01-22T19:33:11.593Z,6.08
2024-01-22T19:36:13.418Z,5.97
2024-01-22T19:39:15.198Z,6.03
2024-01-22T19:42:17.054Z,6.02
2024-01-22T19:45:18.854Z,5.97
2024-01-22T19:48:21.416Z,5.93
2024-01-22T19:51:23.407Z,5.94
2024-01-22T19:54:25.192Z,5.95
2024-01-22T19:57:27.335Z,5.90
2024-01-22T20:00:29.114Z,5.87
2024-01-22T20:03:31.607Z,5.96
2024-01-22T20:06:33.472Z,5.94
2024-01-22T20:09:35.449Z,5.93
2024-01-22T20:12:37.900Z,5.90
2024-01-22T20:15:39.678Z,5.86
2024-01-22T20:18:41.778Z,5.88
2024-01-22T20:21:47.262Z,5.86
2024-01-22T20:24:49.164Z,5.75
2024-01-22T20:27:50.990Z,5.81
2024-01-22T20:30:52.682Z,5.80
2024-01-22T20:33:58.994Z,5.76
2024-01-22T20:37:00.775Z,5.74
2024-01-22T20:40:02.408Z,5.71
2024-01-22T20:43:04.208Z,5.74
2024-01-22T20:46:05.878Z,5.79
2024-01-22T20:49:07.647Z,5.76
2024-01-22T20:52:11.067Z,5.80
2024-01-22T20:55:13.593Z,5.80
2024-01-22T20:58:15.504Z,5.79
2024-01-22T21:01:17.729Z,5.85
2024-01-22T21:04:19.772Z,5.82
2024-01-22T21:07:26.506Z,5.79
2024-01-22T21:10:28.275Z,5.79
2024-01-22T21:13:32.028Z,5.81
2024-01-22T21:16:34.377Z,5.75
2024-01-22T21:19:36.198Z,5.82
2024-01-22T21:22:39.231Z,5.82
2024-01-22T21:25:41.328Z,5.81
2024-01-22T21:28:43.069Z,5.80
2024-01-22T21:31:45.215Z,5.78
2024-01-22T21:34:47.102Z,5.75
2024-01-22T21:37:49.595Z,5.76
2024-01-22T21:40:51.311Z,5.78
2024-01-22T21:43:53.008Z,5.91
2024-01-22T21:46:54.664Z,5.99
2024-01-22T21:49:56.517Z,6.08
2024-01-22T21:52:58.682Z,6.11
2024-01-22T21:56:00.427Z,6.14
2024-01-22T21:59:02.773Z,6.14
2024-01-22T22:02:04.885Z,6.16
2024-01-22T22:05:07.177Z,6.12
2024-01-22T22:08:08.914Z,6.12
2024-01-22T22:11:10.817Z,6.14
2024-01-22T22:14:12.590Z,6.11
2024-01-22T22:17:14.728Z,6.10
2024-01-22T22:20:16.588Z,6.07
2024-01-22T22:23:18.641Z,6.06
2024-01-22T22:26:20.693Z,5.97
2024-01-22T22:29:22.433Z,5.98
2024-01-22T22:32:24.152Z,5.92
2024-01-22T22:35:27.071Z,5.96
2024-01-22T22:38:28.736Z,5.89
2024-01-22T22:41:31.088Z,5.90
2024-01-22T22:44:32.756Z,5.86
2024-01-22T22:47:34.462Z,5.88
2024-01-22T22:50:36.142Z,5.92
2024-01-22T22:53:38.229Z,5.89
2024-01-22T22:56:40.025Z,6.04
2024-01-22T22:59:41.933Z,6.15
2024-01-22T23:02:43.658Z,6.16
2024-01-22T23:05:45.363Z,6.24
2024-01-22T23:08:47.055Z,6.24
2024-01-22T23:11:49.944Z,6.26
2024-01-22T23:14:51.813Z,6.22
2024-01-22T23:17:53.834Z,6.16
2024-01-22T23:20:55.719Z,6.16
2024-01-22T23:23:57.431Z,6.11
2024-01-22T23:26:59.128Z,6.06
2024-01-22T23:30:01.102Z,6.03
2024-01-22T23:33:03.116Z,6.03
2024-01-22T23:36:05.420Z,5.98
2024-01-22T23:39:09.008Z,5.89
2024-01-22T23:42:10.756Z,5.88
2024-01-22T23:45:12.472Z,5.93
2024-01-22T23:48:14.312Z,5.90
2024-01-22T23:51:16.454Z,5.86
2024-01-22T23:54:18.233Z,5.86
2024-01-22T23:57:20.277Z,5.81
